createdAt,value
2018-04-27T00:00:15.191Z,7.20
2018-04-27T00:02:43.478Z,7.10
2018-04-27T00:05:11.783Z,7.10
2018-04-27T00:07:39.967Z,7.10
2018-04-27T00:10:08.567Z,7.10
2018-04-27T00:12:36.842Z,7.00
2018-04-27T00:15:05.885Z,7.00
2018-04-27T00:17:34.219Z,6.90
2018-04-27T00:20:03.213Z,6.90
2018-04-27T00:22:32.355Z,6.90
2018-04-27T00:25:00.670Z,6.80
2018-04-27T00:27:28.897Z,6.90
2018-04-27T00:29:57.175Z,6.90
2018-04-27T00:32:25.466Z,6.80
2018-04-27T00:34:53.732Z,6.80
2018-04-27T00:37:22.417Z,6.80
2018-04-27T00:39:50.747Z,6.80
2018-04-27T00:42:19.433Z,6.80
2018-04-27T00:44:48.490Z,6.80
2018-04-27T00:47:16.726Z,6.70
2018-04-27T00:49:45.017Z,6.70
2018-04-27T00:52:13.263Z,6.70
2018-04-27T00:54:42.265Z,6.70
2018-04-27T00:57:10.513Z,6.70
2018-04-27T00:59:39.533Z,6.70
2018-04-27T01:02:07.798Z,6.60
2018-04-27T01:04:36.806Z,6.60
2018-04-27T01:07:05.071Z,6.60
2018-04-27T01:09:33.415Z,6.60
2018-04-27T01:12:01.654Z,6.60
2018-04-27T01:14:29.898Z,6.60
2018-04-27T01:16:58.151Z,6.50
2018-04-27T01:19:27.327Z,6.50
2018-04-27T01:21:55.550Z,6.40
2018-04-27T01:24:23.825Z,6.40
2018-04-27T01:26:52.065Z,6.40
2018-04-27T01:29:21.078Z,6.30
2018-04-27T01:31:49.345Z,6.20
2018-04-27T01:34:17.691Z,6.30
2018-04-27T01:36:45.936Z,6.20
2018-04-27T01:39:14.183Z,6.20
2018-04-27T01:41:42.434Z,6.10
2018-04-27T01:44:11.445Z,6.10
2018-04-27T01:46:39.713Z,6.00
2018-04-27T01:49:08.710Z,6.10
2018-04-27T01:51:36.960Z,6.00
2018-04-27T01:54:05.989Z,6.00
2018-04-27T01:56:34.289Z,5.90
2018-04-27T01:59:02.529Z,6.00
2018-04-27T02:01:30.813Z,5.90
2018-04-27T02:03:59.114Z,5.90
2018-04-27T02:06:27.451Z,5.90
2018-04-27T02:08:55.660Z,5.90
2018-04-27T02:11:23.887Z,5.90
2018-04-27T02:13:53.071Z,5.90
2018-04-27T02:16:21.322Z,5.90
2018-04-27T02:18:49.613Z,5.90
2018-04-27T02:21:17.866Z,6.00
2018-04-27T02:23:46.113Z,6.00
2018-04-27T02:26:14.358Z,6.00
2018-04-27T02:28:43.546Z,6.00
2018-04-27T02:31:12.539Z,6.00
2018-04-27T02:33:41.561Z,6.00
2018-04-27T02:36:09.799Z,6.00
2018-04-27T02:38:38.838Z,6.00
2018-04-27T02:41:07.087Z,6.00
2018-04-27T02:43:36.154Z,6.10
2018-04-27T02:46:04.420Z,6.00
2018-04-27T02:48:32.716Z,6.10
2018-04-27T02:51:01.726Z,6.10
2018-04-27T02:53:30.238Z,6.10
2018-04-27T02:55:58.499Z,6.10
2018-04-27T02:58:26.752Z,6.10
2018-04-27T03:00:55.006Z,6.20
2018-04-27T03:03:24.191Z,6.10
2018-04-27T03:05:52.428Z,6.10
2018-04-27T03:08:20.743Z,6.10
2018-04-27T03:10:49.015Z,6.10
2018-04-27T03:13:17.260Z,6.00
2018-04-27T03:15:45.510Z,6.00
2018-04-27T03:18:13.841Z,6.00
2018-04-27T03:20:42.106Z,6.00
2018-04-27T03:23:10.382Z,5.90
2018-04-27T03:25:38.631Z,5.90
2018-04-27T03:28:06.878Z,5.90
2018-04-27T03:30:35.218Z,5.90
2018-04-27T03:33:04.308Z,5.80
2018-04-27T03:35:32.547Z,5.70
2018-04-27T03:38:00.798Z,5.80
2018-04-27T03:40:29.058Z,5.70
2018-04-27T03:42:57.663Z,5.70
2018-04-27T03:45:26.000Z,5.70
2018-04-27T03:47:54.250Z,5.70
2018-04-27T03:50:22.647Z,5.80
2018-04-27T03:52:50.915Z,5.60
2018-04-27T03:55:19.201Z,5.60
2018-04-27T03:57:47.475Z,5.60
2018-04-27T04:00:29.197Z,5.50
2018-04-27T04:03:10.030Z,5.60
2018-04-27T04:05:38.265Z,5.50
2018-04-27T04:08:06.551Z,5.60
2018-04-27T04:10:34.792Z,5.60
2018-04-27T04:13:03.100Z,5.60
2018-04-27T04:15:31.338Z,5.60
2018-04-27T04:17:59.675Z,5.60
2018-04-27T04:20:27.937Z,5.70
2018-04-27T04:22:56.249Z,5.70
2018-04-27T04:25:25.280Z,5.70
2018-04-27T04:27:53.525Z,5.60
2018-04-27T04:30:21.869Z,5.70
2018-04-27T04:32:50.246Z,5.70
2018-04-27T04:35:18.520Z,5.80
2018-04-27T04:37:46.798Z,5.90
2018-04-27T04:40:15.073Z,6.00
2018-04-27T04:42:43.309Z,6.00
2018-04-27T04:45:11.581Z,6.10
2018-04-27T04:47:41.390Z,6.30
2018-04-27T04:50:10.198Z,6.30
2018-04-27T04:52:38.557Z,6.40
2018-04-27T04:55:07.076Z,6.50
2018-04-27T04:57:35.349Z,6.60
2018-04-27T05:00:03.618Z,6.70
2018-04-27T05:02:31.900Z,7.00
2018-04-27T05:05:00.210Z,7.20
2018-04-27T05:07:29.255Z,7.50
2018-04-27T05:09:57.505Z,7.40
2018-04-27T05:12:25.819Z,7.60
2018-04-27T05:14:54.095Z,7.70
2018-04-27T05:17:22.572Z,7.90
2018-04-27T05:19:54.138Z,8.20
2018-04-27T05:22:23.144Z,8.50
2018-04-27T05:24:51.525Z,8.50
2018-04-27T05:27:19.764Z,8.70
2018-04-27T05:29:48.116Z,8.70
2018-04-27T05:32:17.065Z,8.80
2018-04-27T05:34:45.387Z,8.70
2018-04-27T05:37:13.649Z,8.90
2018-04-27T05:39:42.880Z,9.00
2018-04-27T05:42:11.911Z,9.30
2018-04-27T05:44:40.356Z,9.20
2018-04-27T05:47:08.578Z,9.40
2018-04-27T05:49:36.950Z,9.70
2018-04-27T05:52:05.287Z,9.80
2018-04-27T05:54:33.571Z,10.00
2018-04-27T05:57:02.597Z,10.50
2018-04-27T05:59:30.869Z,10.40
2018-04-27T06:01:59.194Z,10.80
2018-04-27T06:04:27.494Z,11.20
2018-04-27T06:06:56.510Z,11.70
2018-04-27T06:09:24.813Z,11.70
2018-04-27T06:11:53.129Z,11.90
2018-04-27T06:14:21.445Z,12.00
2018-04-27T06:16:49.826Z,12.10
2018-04-27T06:19:18.082Z,12.20
2018-04-27T06:21:46.380Z,12.00
2018-04-27T06:24:14.611Z,12.00
2018-04-27T06:26:43.692Z,11.60
2018-04-27T06:29:11.916Z,11.50
2018-04-27T06:31:40.182Z,11.30
2018-04-27T06:34:08.444Z,11.20
2018-04-27T06:36:37.482Z,11.00
2018-04-27T06:39:05.783Z,10.90
2018-04-27T06:41:34.058Z,10.90
2018-04-27T06:44:02.336Z,10.80
2018-04-27T06:46:30.590Z,10.80
2018-04-27T06:48:59.049Z,10.80
2018-04-27T06:51:27.444Z,10.80
2018-04-27T06:53:55.744Z,10.90
2018-04-27T06:56:24.018Z,10.90
2018-04-27T06:58:52.317Z,11.00
2018-04-27T07:01:20.570Z,11.10
2018-04-27T07:03:49.589Z,11.20
2018-04-27T07:06:17.973Z,11.20
2018-04-27T07:08:46.275Z,11.40
2018-04-27T07:11:14.539Z,11.50
2018-04-27T07:13:42.838Z,11.60
2018-04-27T07:16:11.089Z,11.70
2018-04-27T07:18:39.366Z,11.80
2018-04-27T07:21:07.692Z,11.90
2018-04-27T07:23:37.441Z,12.00
2018-04-27T07:26:05.750Z,12.00
2018-04-27T07:28:34.065Z,12.20
2018-04-27T07:31:03.139Z,12.30
2018-04-27T07:33:32.183Z,12.30
2018-04-27T07:36:01.459Z,12.50
2018-04-27T07:38:30.467Z,12.60
2018-04-27T07:40:58.802Z,12.60
2018-04-27T07:43:27.047Z,12.70
2018-04-27T07:45:55.304Z,12.80
2018-04-27T07:48:23.551Z,12.90
2018-04-27T07:50:52.587Z,12.90
2018-04-27T07:53:20.852Z,12.90
2018-04-27T07:55:49.094Z,13.00
2018-04-27T07:58:18.096Z,13.20
2018-04-27T08:00:46.434Z,13.10
2018-04-27T08:03:14.646Z,13.30
2018-04-27T08:05:42.948Z,13.50
2018-04-27T08:08:11.257Z,13.60
2018-04-27T08:10:40.351Z,13.70
2018-04-27T08:13:08.594Z,13.60
2018-04-27T08:15:36.923Z,13.80
2018-04-27T08:18:05.255Z,13.80
2018-04-27T08:20:33.490Z,13.90
2018-04-27T08:23:01.771Z,13.90
2018-04-27T08:25:30.104Z,14.00
2018-04-27T08:27:58.383Z,14.10
2018-04-27T08:30:26.698Z,14.10
2018-04-27T08:32:55.078Z,14.20
2018-04-27T08:35:23.341Z,14.20
2018-04-27T08:37:51.598Z,14.20
2018-04-27T08:40:20.681Z,14.40
2018-04-27T08:42:49.776Z,14.40
2018-04-27T08:45:18.050Z,14.30
2018-04-27T08:47:46.314Z,14.40
2018-04-27T08:50:15.361Z,14.60
2018-04-27T08:52:43.689Z,14.50
2018-04-27T08:55:11.944Z,14.50
2018-04-27T08:57:41.130Z,14.80
2018-04-27T09:00:09.435Z,14.70
2018-04-27T09:02:37.920Z,14.90
2018-04-27T09:05:06.233Z,15.00
2018-04-27T09:07:34.670Z,15.10
2018-04-27T09:10:02.962Z,15.20
2018-04-27T09:12:32.046Z,15.40
2018-04-27T09:15:00.422Z,15.40
2018-04-27T09:17:30.041Z,15.70
2018-04-27T09:19:58.503Z,15.60
2018-04-27T09:22:26.787Z,15.50
2018-04-27T09:24:55.463Z,15.50
2018-04-27T09:27:23.694Z,15.50
2018-04-27T09:29:52.014Z,15.40
2018-04-27T09:32:21.232Z,15.50
2018-04-27T09:34:49.489Z,15.40
2018-04-27T09:37:17.746Z,15.50
2018-04-27T09:39:46.033Z,15.60
2018-04-27T09:42:14.279Z,15.60
2018-04-27T09:44:42.577Z,15.60
2018-04-27T09:47:10.961Z,15.50
2018-04-27T09:49:39.340Z,15.50
2018-04-27T09:52:07.574Z,15.70
2018-04-27T09:54:35.857Z,15.70
2018-04-27T09:57:04.170Z,15.90
2018-04-27T09:59:33.358Z,16.00
2018-04-27T10:02:01.602Z,16.00
2018-04-27T10:04:30.034Z,16.20
2018-04-27T10:06:59.066Z,16.30
2018-04-27T10:09:27.313Z,16.20
2018-04-27T10:11:55.619Z,16.30
2018-04-27T10:14:24.050Z,16.30
2018-04-27T10:16:53.102Z,16.60
2018-04-27T10:19:21.503Z,16.50
2018-04-27T10:21:49.776Z,16.70
2018-04-27T10:24:18.033Z,16.80
2018-04-27T10:26:46.310Z,17.00
2018-04-27T10:29:14.694Z,17.10
2018-04-27T10:31:43.061Z,17.10
2018-04-27T10:34:11.312Z,17.50
2018-04-27T10:36:39.611Z,17.40
2018-04-27T10:39:07.845Z,17.60
2018-04-27T10:41:36.105Z,17.60
2018-04-27T10:44:05.150Z,17.70
2018-04-27T10:46:33.459Z,17.60
2018-04-27T10:49:01.690Z,17.80
2018-04-27T10:51:30.584Z,17.90
2018-04-27T10:54:00.017Z,17.90
2018-04-27T10:56:28.225Z,18.00
2018-04-27T10:58:56.502Z,18.00
2018-04-27T11:01:24.800Z,18.00
2018-04-27T11:03:54.035Z,18.10
2018-04-27T11:06:22.288Z,18.10
2018-04-27T11:08:50.601Z,18.20
2018-04-27T11:11:19.693Z,18.20
2018-04-27T11:13:47.948Z,18.20
2018-04-27T11:16:16.189Z,18.20
2018-04-27T11:18:44.509Z,18.20
2018-04-27T11:21:12.792Z,18.10
2018-04-27T11:23:41.060Z,18.30
2018-04-27T11:26:09.333Z,18.20
2018-04-27T11:28:37.593Z,18.30
2018-04-27T11:31:05.877Z,18.20
2018-04-27T11:33:34.111Z,18.20
2018-04-27T11:36:02.433Z,18.20
2018-04-27T11:38:30.658Z,18.10
2018-04-27T11:40:59.097Z,18.00
2018-04-27T11:43:28.147Z,17.90
2018-04-27T11:45:56.401Z,17.90
2018-04-27T11:48:24.655Z,17.60
2018-04-27T11:50:52.938Z,17.80
2018-04-27T11:53:21.994Z,17.90
2018-04-27T11:55:50.269Z,17.90
2018-04-27T11:58:18.579Z,18.00
2018-04-27T12:00:46.991Z,17.90
2018-04-27T12:03:15.241Z,17.80
2018-04-27T12:05:43.534Z,18.00
2018-04-27T12:08:11.822Z,18.20
2018-04-27T12:10:40.058Z,18.20
2018-04-27T12:13:09.317Z,18.20
2018-04-27T12:15:37.526Z,18.10
2018-04-27T12:18:05.855Z,18.20
2018-04-27T12:20:34.126Z,18.10
2018-04-27T12:23:02.521Z,18.10
2018-04-27T12:25:30.802Z,18.40
2018-04-27T12:28:00.094Z,18.20
2018-04-27T12:30:28.361Z,18.20
2018-04-27T12:32:56.666Z,18.30
2018-04-27T12:35:25.250Z,18.40
2018-04-27T12:37:54.297Z,18.70
2018-04-27T12:40:22.533Z,18.60
2018-04-27T12:42:51.598Z,18.60
2018-04-27T12:45:19.822Z,18.50
2018-04-27T12:47:48.243Z,18.80
2018-04-27T12:50:16.649Z,18.80
2018-04-27T12:52:45.647Z,18.90
2018-04-27T12:55:13.894Z,18.80
2018-04-27T12:57:42.189Z,18.90
2018-04-27T13:00:10.537Z,19.10
2018-04-27T13:02:39.134Z,19.20
2018-04-27T13:05:07.410Z,19.10
2018-04-27T13:07:37.290Z,19.20
2018-04-27T13:10:05.582Z,19.20
2018-04-27T13:12:33.922Z,19.30
2018-04-27T13:15:03.186Z,18.70
2018-04-27T13:17:32.294Z,19.00
2018-04-27T13:20:00.571Z,18.90
2018-04-27T13:22:28.906Z,19.00
2018-04-27T13:24:57.970Z,18.90
2018-04-27T13:27:26.245Z,18.80
2018-04-27T13:29:54.513Z,18.90
2018-04-27T13:32:22.876Z,18.90
2018-04-27T13:34:51.131Z,19.00
2018-04-27T13:37:20.141Z,19.10
2018-04-27T13:39:48.455Z,19.00
2018-04-27T13:42:16.789Z,19.00
2018-04-27T13:44:45.039Z,19.00
2018-04-27T13:47:14.209Z,19.10
2018-04-27T13:49:42.489Z,19.00
2018-04-27T13:52:11.561Z,19.20
2018-04-27T13:54:39.805Z,19.10
2018-04-27T13:57:08.142Z,19.00
2018-04-27T13:59:37.167Z,19.20
2018-04-27T14:02:05.594Z,19.10
2018-04-27T14:04:34.649Z,19.10
2018-04-27T14:07:03.013Z,19.10
2018-04-27T14:09:31.497Z,19.00
2018-04-27T14:12:00.483Z,19.20
2018-04-27T14:14:28.742Z,19.10
2018-04-27T14:16:57.737Z,19.50
2018-04-27T14:19:26.816Z,19.80
2018-04-27T14:21:55.819Z,19.80
2018-04-27T14:24:25.705Z,20.00
2018-04-27T14:26:53.994Z,19.90
2018-04-27T14:29:23.792Z,20.00
2018-04-27T14:31:52.074Z,20.00
2018-04-27T14:34:21.841Z,20.00
2018-04-27T14:36:50.173Z,20.00
2018-04-27T14:39:19.196Z,19.70
2018-04-27T14:41:47.451Z,19.60
2018-04-27T14:44:15.793Z,19.30
2018-04-27T14:46:44.851Z,19.50
2018-04-27T14:49:13.276Z,19.40
2018-04-27T14:51:41.637Z,19.50
2018-04-27T14:54:09.951Z,19.60
2018-04-27T14:56:38.298Z,19.60
2018-04-27T14:59:06.579Z,19.60
2018-04-27T15:01:35.042Z,19.70
2018-04-27T15:04:03.327Z,19.80
2018-04-27T15:06:32.409Z,19.50
2018-04-27T15:09:01.519Z,19.50
2018-04-27T15:11:29.765Z,19.40
2018-04-27T15:13:58.076Z,19.40
2018-04-27T15:16:27.137Z,19.50
2018-04-27T15:18:55.389Z,19.50
2018-04-27T15:21:23.663Z,19.80
2018-04-27T15:23:51.930Z,20.00
2018-04-27T15:26:20.233Z,19.90
2018-04-27T15:28:48.610Z,20.00
2018-04-27T15:31:18.069Z,19.90
2018-04-27T15:33:47.142Z,19.90
2018-04-27T15:36:15.414Z,19.80
2018-04-27T15:38:44.427Z,19.80
2018-04-27T15:41:12.879Z,19.80
2018-04-27T15:43:41.895Z,19.60
2018-04-27T15:46:10.157Z,19.60
2018-04-27T15:48:39.179Z,19.50
2018-04-27T15:51:07.453Z,19.50
2018-04-27T15:53:35.733Z,19.50
2018-04-27T15:56:04.730Z,19.70
2018-04-27T15:58:33.010Z,19.60
2018-04-27T16:01:01.263Z,19.70
2018-04-27T16:03:29.534Z,19.70
2018-04-27T16:05:58.814Z,19.70
2018-04-27T16:08:27.033Z,19.80
2018-04-27T16:10:55.319Z,19.90
2018-04-27T16:16:30.051Z,19.70
2018-04-27T16:18:59.090Z,19.70
2018-04-27T16:21:27.318Z,19.70
2018-04-27T16:23:55.888Z,19.60
2018-04-27T16:26:25.970Z,19.60
2018-04-27T16:28:55.075Z,19.50
2018-04-27T16:31:23.537Z,19.50
2018-04-27T16:33:52.598Z,19.40
2018-04-27T16:36:20.992Z,19.20
2018-04-27T16:38:49.258Z,19.30
2018-04-27T16:41:17.575Z,19.30
2018-04-27T16:43:46.611Z,19.20
2018-04-27T16:46:14.873Z,19.20
2018-04-27T16:48:43.331Z,19.20
2018-04-27T16:51:11.565Z,19.20
2018-04-27T16:53:39.977Z,19.00
2018-04-27T16:56:08.332Z,19.00
2018-04-27T16:58:36.710Z,19.00
2018-04-27T17:01:05.756Z,18.90
2018-04-27T17:03:34.224Z,18.90
2018-04-27T17:06:02.433Z,18.90
2018-04-27T17:08:30.706Z,19.00
2018-04-27T17:10:58.953Z,19.00
2018-04-27T17:13:27.214Z,19.10
2018-04-27T17:15:55.522Z,19.10
2018-04-27T17:18:23.777Z,19.10
2018-04-27T17:20:52.827Z,19.20
2018-04-27T17:23:21.150Z,19.20
2018-04-27T17:25:50.279Z,19.20
2018-04-27T17:28:18.714Z,19.20
2018-04-27T17:30:47.371Z,19.20
2018-04-27T17:33:16.385Z,19.10
2018-04-27T17:35:44.732Z,19.00
2018-04-27T17:38:13.026Z,19.10
2018-04-27T17:40:41.344Z,19.10
2018-04-27T17:43:09.593Z,19.10
2018-04-27T17:45:37.942Z,19.00
2018-04-27T17:48:06.198Z,19.00
2018-04-27T17:50:34.697Z,19.10
2018-04-27T17:53:03.819Z,18.90
2018-04-27T17:55:32.093Z,18.90
2018-04-27T17:58:01.916Z,18.90
2018-04-27T18:00:30.155Z,18.80
2018-04-27T18:02:58.413Z,18.90
2018-04-27T18:05:26.848Z,18.80
2018-04-27T18:07:55.186Z,18.80
2018-04-27T18:10:23.547Z,18.80
2018-04-27T18:12:51.785Z,18.70
2018-04-27T18:15:20.246Z,18.60
2018-04-27T18:17:48.620Z,18.60
2018-04-27T18:20:16.850Z,18.50
2018-04-27T18:22:45.168Z,18.50
2018-04-27T18:25:13.458Z,18.40
2018-04-27T18:27:41.810Z,18.40
2018-04-27T18:30:10.039Z,18.30
2018-04-27T18:32:39.276Z,18.30
2018-04-27T18:35:08.286Z,18.30
2018-04-27T18:37:36.577Z,18.30
2018-04-27T18:40:04.892Z,18.30
2018-04-27T18:42:33.171Z,18.30
2018-04-27T18:45:02.232Z,18.20
2018-04-27T18:47:32.025Z,18.20
2018-04-27T18:50:00.314Z,18.20
2018-04-27T18:52:28.831Z,18.20
2018-04-27T18:54:57.645Z,18.20
2018-04-27T18:57:25.998Z,18.10
2018-04-27T18:59:55.113Z,18.00
2018-04-27T19:02:24.288Z,18.00
2018-04-27T19:04:52.704Z,17.90
2018-04-27T19:07:21.754Z,17.90
2018-04-27T19:09:51.563Z,17.70
2018-04-27T19:12:19.835Z,17.70
2018-04-27T19:14:48.127Z,17.60
2018-04-27T19:17:16.423Z,17.50
2018-04-27T19:19:44.673Z,17.50
2018-04-27T19:22:17.650Z,17.40
2018-04-27T19:24:46.755Z,17.30
2018-04-27T19:27:15.195Z,17.30
2018-04-27T19:29:43.506Z,17.30
2018-04-27T19:32:12.631Z,17.20
2018-04-27T19:34:41.788Z,17.10
2018-04-27T19:37:10.072Z,17.10
2018-04-27T19:39:39.101Z,17.10
2018-04-27T19:42:07.449Z,17.10
2018-04-27T19:44:36.540Z,17.10
2018-04-27T19:47:04.846Z,17.00
2018-04-27T19:49:33.246Z,17.10
2018-04-27T19:52:01.466Z,17.10
2018-04-27T19:54:30.512Z,17.10
2018-04-27T19:56:58.789Z,17.00
2018-04-27T19:59:27.050Z,17.00
2018-04-27T20:01:55.333Z,17.00
2018-04-27T20:04:23.586Z,16.90
2018-04-27T20:06:51.848Z,17.00
2018-04-27T20:09:20.200Z,17.00
2018-04-27T20:11:48.488Z,17.00
2018-04-27T20:14:28.725Z,16.90
2018-04-27T20:17:03.601Z,16.90
2018-04-27T20:19:34.494Z,16.80
2018-04-27T20:22:21.614Z,16.70
2018-04-27T20:24:49.898Z,16.70
2018-04-27T20:27:18.931Z,16.70
2018-04-27T20:29:48.071Z,16.60
2018-04-27T20:32:16.334Z,16.50
2018-04-27T20:34:46.125Z,16.50
2018-04-27T20:37:14.437Z,16.50
2018-04-27T20:39:42.655Z,16.50
2018-04-27T20:42:10.945Z,16.40
2018-04-27T20:44:39.226Z,16.40
2018-04-27T20:47:07.589Z,16.30
2018-04-27T20:49:36.762Z,16.20
2018-04-27T20:52:05.214Z,16.10
2018-04-27T20:54:34.400Z,16.00
2018-04-27T20:57:03.672Z,15.90
2018-04-27T20:59:31.953Z,15.90
2018-04-27T21:02:00.250Z,15.80
2018-04-27T21:04:28.514Z,15.70
2018-04-27T21:06:56.880Z,15.50
2018-04-27T21:09:25.180Z,15.50
2018-04-27T21:11:53.444Z,15.40
2018-04-27T21:14:21.739Z,15.30
2018-04-27T21:16:50.210Z,15.20
2018-04-27T21:19:19.238Z,15.10
2018-04-27T21:21:47.496Z,15.00
2018-04-27T21:24:15.786Z,15.00
2018-04-27T21:26:44.122Z,14.90
2018-04-27T21:29:20.255Z,14.80
2018-04-27T21:31:48.560Z,14.80
2018-04-27T21:34:17.296Z,14.70
2018-04-27T21:36:47.304Z,14.70
2018-04-27T21:39:16.591Z,14.60
2018-04-27T21:41:49.097Z,14.40
2018-04-27T21:44:23.342Z,14.40
2018-04-27T21:46:53.133Z,14.30
2018-04-27T21:49:25.248Z,14.30
2018-04-27T21:51:54.534Z,14.20
2018-04-27T21:54:23.837Z,14.20
2018-04-27T21:57:12.906Z,14.10
2018-04-27T21:59:46.055Z,14.10
2018-04-27T22:02:16.373Z,14.00
2018-04-27T22:04:44.693Z,13.90
2018-04-27T22:07:18.909Z,13.90
2018-04-27T22:09:53.118Z,13.90
2018-04-27T22:12:22.246Z,13.80
2018-04-27T22:14:50.508Z,13.80
2018-04-27T22:17:28.562Z,13.70
2018-04-27T22:20:11.702Z,13.70
2018-04-27T22:22:40.803Z,13.70
2018-04-27T22:25:20.772Z,13.70
2018-04-27T22:27:50.760Z,13.60
2018-04-27T22:30:31.069Z,13.60
2018-04-27T22:32:59.333Z,13.60
2018-04-27T22:35:34.734Z,13.60
2018-04-27T22:38:03.194Z,13.50
2018-04-27T22:40:38.251Z,13.50
2018-04-27T22:43:17.858Z,13.50
2018-04-27T22:48:44.121Z,13.60
2018-04-27T22:51:14.225Z,13.60
2018-04-27T22:53:43.553Z,13.70
2018-04-27T22:59:08.889Z,13.80
2018-04-27T23:01:37.401Z,13.80
2018-04-27T23:04:05.723Z,13.80
2018-04-27T23:06:34.081Z,13.90
2018-04-27T23:09:02.324Z,13.90
2018-04-27T23:11:32.064Z,13.90
2018-04-27T23:14:19.045Z,13.90
2018-04-27T23:16:49.737Z,14.00
2018-04-27T23:19:17.985Z,13.90
2018-04-27T23:22:00.938Z,14.00
2018-04-27T23:24:29.160Z,14.00
2018-04-27T23:26:59.020Z,14.00
2018-04-27T23:29:28.040Z,14.00
2018-04-27T23:31:56.338Z,14.00
2018-04-27T23:34:24.615Z,14.00
2018-04-27T23:36:53.799Z,14.10
2018-04-27T23:39:22.061Z,14.10
2018-04-27T23:41:50.339Z,14.10
2018-04-27T23:44:19.346Z,14.10
2018-04-27T23:46:47.600Z,14.10
2018-04-27T23:49:16.619Z,14.10
2018-04-27T23:51:46.678Z,14.10
2018-04-27T23:54:14.896Z,14.20
2018-04-27T23:56:45.829Z,14.20
2018-04-27T23:59:20.946Z,14.20
